Time;durP1;ratioP1;P1;durP2;ratioP2;P2;SDS_P1;SDS_P2;PMS_P1;PMS_P2;Temp;Humidity;BMP_temperature;BMP_pressure;BME280_temperature;BME280_humidity;BME280_pressure;Samples;Min_cycle;Max_cycle;Signal;HPM_P1;HPM_P2
2022/10/17 00:00:43;;;;;;;1.20;0.80;;;19.80;59.50;;;;;;6266693;28;20024;-74
2022/10/17 00:03:44;;;;;;;1.27;1.00;;;19.80;59.50;;;;;;6266394;28;20033;-74
2022/10/17 00:06:45;;;;;;;0.88;0.70;;;19.80;59.50;;;;;;6267521;28;20474;-74
2022/10/17 00:09:46;;;;;;;0.75;0.70;;;19.80;59.50;;;;;;6267492;28;20082;-74
2022/10/17 00:12:47;;;;;;;1.00;0.75;;;19.80;59.50;;;;;;6266203;28;20033;-74
2022/10/17 00:15:48;;;;;;;1.20;0.88;;;19.80;59.50;;;;;;6267051;28;20712;-75
2022/10/17 00:18:48;;;;;;;1.63;0.80;;;19.80;59.50;;;;;;6267346;28;20033;-73
2022/10/17 00:21:50;;;;;;;1.25;0.95;;;19.80;60.20;;;;;;6267036;28;20025;-74
2022/10/17 00:24:50;;;;;;;0.80;0.70;;;19.80;59.50;;;;;;6265439;28;20035;-74
2022/10/17 00:27:52;;;;;;;1.13;0.60;;;19.80;59.50;;;;;;6266970;28;20112;-74
2022/10/17 00:31:00;;;;;;;1.50;0.85;;;19.80;59.50;;;;;;6267009;28;20075;-74
2022/10/17 00:34:01;;;;;;;1.10;0.98;;;19.80;59.50;;;;;;6267263;28;20847;-74
2022/10/17 00:37:01;;;;;;;1.30;0.80;;;19.80;59.50;;;;;;6265784;28;20029;-73
2022/10/17 00:40:04;;;;;;;1.55;1.10;;;19.80;59.50;;;;;;6267434;28;20645;-74
2022/10/17 00:43:15;;;;;;;1.85;0.93;;;19.80;59.50;;;;;;6266889;28;20025;-74
2022/10/17 00:46:16;;;;;;;1.33;1.00;;;19.80;59.50;;;;;;6260607;28;20033;-74
2022/10/17 00:49:17;;;;;;;1.20;0.85;;;19.80;59.50;;;;;;6266458;28;20112;-74
2022/10/17 00:52:22;;;;;;;2.15;1.05;;;19.80;59.50;;;;;;6266883;28;20021;-74
2022/10/17 00:55:29;;;;;;;0.93;0.82;;;19.80;59.50;;;;;;6266699;28;20033;-73
2022/10/17 00:58:30;;;;;;;1.10;0.98;;;19.80;59.50;;;;;;6265604;28;20060;-73
2022/10/17 01:01:32;;;;;;;1.00;0.90;;;19.80;59.50;;;;;;6266583;28;20695;-73
2022/10/17 01:04:35;;;;;;;0.90;0.70;;;19.80;59.50;;;;;;6265362;28;20120;-74
2022/10/17 01:07:38;;;;;;;1.92;0.90;;;19.80;59.50;;;;;;6266405;28;20090;-74
2022/10/17 01:11:10;;;;;;;1.50;1.25;;;19.80;59.50;;;;;;6266784;28;20401;-74
2022/10/17 01:14:26;;;;;;;1.63;1.13;;;19.80;59.50;;;;;;6265299;28;20022;-74
2022/10/17 01:17:31;;;;;;;1.42;1.10;;;19.80;59.50;;;;;;6266623;28;20171;-74
2022/10/17 01:20:50;;;;;;;1.63;0.85;;;19.80;60.20;;;;;;6265233;28;20029;-74
2022/10/17 01:24:31;;;;;;;1.42;0.88;;;19.80;59.50;;;;;;6269406;28;20454;-74
2022/10/17 01:28:09;;;;;;;1.05;0.90;;;19.80;59.50;;;;;;6233640;28;20049;-74
2022/10/17 01:31:15;;;;;;;1.35;0.88;;;19.80;59.50;;;;;;6271555;28;20017;-73
2022/10/17 01:34:26;;;;;;;1.20;1.00;;;19.80;59.50;;;;;;6271037;28;20057;-74
2022/10/17 01:38:00;;;;;;;1.67;1.00;;;19.80;59.50;;;;;;6271319;28;20032;-74
2022/10/17 01:41:09;;;;;;;0.95;0.88;;;19.80;59.50;;;;;;6270898;28;20028;-74
2022/10/17 01:44:12;;;;;;;1.13;0.85;;;19.80;59.50;;;;;;6269765;28;20456;-74
2022/10/17 01:47:18;;;;;;;1.13;0.90;;;19.80;59.50;;;;;;6261334;28;20040;-74
2022/10/17 01:50:24;;;;;;;1.27;0.93;;;19.80;59.50;;;;;;6246209;28;20050;-74
2022/10/17 01:53:32;;;;;;;1.13;0.90;;;19.80;59.50;;;;;;6263566;28;20028;-74
2022/10/17 01:56:34;;;;;;;1.20;0.98;;;19.80;59.50;;;;;;6270920;28;20694;-74
2022/10/17 01:59:44;;;;;;;1.95;1.02;;;19.80;59.50;;;;;;6270779;28;20025;-74
2022/10/17 02:02:49;;;;;;;1.20;1.00;;;19.80;60.20;;;;;;6269453;28;20032;-74
2022/10/17 02:05:50;;;;;;;1.25;0.90;;;19.80;59.50;;;;;;6269768;28;20040;-74
2022/10/17 02:08:51;;;;;;;2.08;1.35;;;19.80;59.50;;;;;;6270411;28;20551;-74
2022/10/17 02:12:17;;;;;;;1.00;0.90;;;19.80;59.50;;;;;;6270845;28;20024;-73
2022/10/17 02:15:55;;;;;;;1.75;0.98;;;19.80;59.50;;;;;;6246226;28;20029;-74
2022/10/17 02:19:08;;;;;;;1.58;1.05;;;19.80;59.50;;;;;;6270540;28;20048;-74
2022/10/17 02:22:26;;;;;;;1.10;0.80;;;19.80;59.50;;;;;;6270609;28;20025;-74
2022/10/17 02:25:44;;;;;;;1.23;0.80;;;19.80;59.50;;;;;;6270006;28;20935;-74
2022/10/17 02:29:27;;;;;;;1.20;0.93;;;19.80;59.50;;;;;;6270149;28;20151;-73
2022/10/17 02:32:35;;;;;;;3.83;0.98;;;19.80;59.50;;;;;;6255750;28;20033;-74
2022/10/17 02:35:42;;;;;;;1.00;0.82;;;19.80;59.50;;;;;;6269590;28;20024;-74
2022/10/17 02:38:44;;;;;;;1.35;1.00;;;19.80;59.50;;;;;;6269908;28;20031;-75
2022/10/17 02:41:46;;;;;;;1.10;1.00;;;19.80;59.50;;;;;;6269843;28;20477;-73
2022/10/17 02:44:47;;;;;;;1.15;0.85;;;19.70;59.40;;;;;;6269766;28;20025;-74
2022/10/17 02:48:03;;;;;;;1.05;0.80;;;19.80;59.50;;;;;;6269822;28;20031;-74
2022/10/17 02:51:06;;;;;;;;;;;19.80;59.50;;;;;;6268848;28;20073;-73
2022/10/17 02:54:13;;;;;;;1.38;0.90;;;19.80;59.50;;;;;;6284800;28;19905;-74
2022/10/17 02:57:35;;;;;;;2.20;0.90;;;19.80;59.50;;;;;;6267804;28;20075;-74
2022/10/17 03:00:39;;;;;;;1.25;0.90;;;19.80;59.50;;;;;;6267521;28;20037;-74
2022/10/17 03:03:39;;;;;;;1.75;0.98;;;19.80;59.50;;;;;;6267995;28;20611;-74
2022/10/17 03:06:40;;;;;;;1.52;0.98;;;19.80;59.50;;;;;;6269079;28;20033;-74
2022/10/17 03:09:41;;;;;;;1.58;0.93;;;19.80;59.50;;;;;;6269339;28;20033;-74
2022/10/17 03:12:42;;;;;;;1.25;0.90;;;19.70;59.50;;;;;;6267755;28;20509;-74
2022/10/17 03:15:42;;;;;;;0.90;0.75;;;19.80;59.50;;;;;;6267860;28;20505;-74
2022/10/17 03:18:43;;;;;;;0.90;0.80;;;19.80;59.50;;;;;;6268848;28;20025;-74
2022/10/17 03:21:44;;;;;;;1.30;1.02;;;19.80;59.60;;;;;;6268821;28;20025;-74
2022/10/17 03:24:44;;;;;;;1.75;1.25;;;19.80;59.50;;;;;;6268465;28;20580;-74
2022/10/17 03:27:45;;;;;;;1.20;0.82;;;19.80;59.60;;;;;;6267274;28;20025;-74
2022/10/17 03:30:46;;;;;;;1.30;0.88;;;19.80;59.50;;;;;;6268458;28;20709;-75
2022/10/17 03:33:47;;;;;;;1.65;0.90;;;19.80;59.50;;;;;;6268234;28;20154;-73
2022/10/17 03:36:48;;;;;;;1.42;0.90;;;19.80;59.50;;;;;;6267116;28;20027;-74
2022/10/17 03:39:49;;;;;;;1.45;1.02;;;19.80;59.50;;;;;;6268113;28;20482;-74
2022/10/17 03:42:50;;;;;;;1.45;0.80;;;19.80;59.50;;;;;;6267010;28;20029;-74
2022/10/17 03:45:50;;;;;;;1.42;0.95;;;19.80;59.50;;;;;;6258013;28;20025;-74
2022/10/17 03:48:51;;;;;;;1.65;1.10;;;19.80;59.50;;;;;;6248187;28;20642;-73
2022/10/17 03:51:51;;;;;;;1.38;0.95;;;19.80;59.60;;;;;;6268116;28;20417;-74
2022/10/17 03:54:52;;;;;;;1.20;0.90;;;19.80;59.60;;;;;;6267673;28;20386;-74
2022/10/17 03:57:53;;;;;;;0.98;0.85;;;19.80;59.60;;;;;;6266448;28;20389;-74
2022/10/17 04:00:54;;;;;;;1.27;0.90;;;19.80;59.50;;;;;;6266584;28;20059;-74
2022/10/17 04:03:56;;;;;;;1.25;0.88;;;19.80;59.50;;;;;;6268111;28;20107;-74
2022/10/17 04:06:57;;;;;;;1.17;0.90;;;19.80;59.50;;;;;;6266191;28;20025;-74
2022/10/17 04:09:57;;;;;;;1.42;1.20;;;19.80;59.50;;;;;;6267135;28;20028;-73
2022/10/17 04:12:58;;;;;;;1.52;0.95;;;19.80;59.50;;;;;;6267410;28;20549;-74
2022/10/17 04:16:05;;;;;;;1.08;0.80;;;19.80;59.50;;;;;;6267179;28;20575;-73
2022/10/17 04:19:06;;;;;;;1.40;0.73;;;19.80;59.50;;;;;;6265507;28;20029;-74
2022/10/17 04:22:07;;;;;;;0.85;0.70;;;19.80;59.50;;;;;;6267243;28;20104;-74
2022/10/17 04:25:08;;;;;;;0.70;0.70;;;19.80;59.60;;;;;;6267530;28;20025;-74
2022/10/17 04:28:08;;;;;;;2.08;1.02;;;19.80;59.50;;;;;;6282806;28;20366;-74
2022/10/17 04:31:12;;;;;;;1.20;0.65;;;19.80;59.50;;;;;;6267211;28;20453;-74
2022/10/17 04:34:13;;;;;;;1.00;0.80;;;19.80;59.50;;;;;;6267196;28;20104;-74
2022/10/17 04:37:14;;;;;;;1.20;0.90;;;19.80;59.60;;;;;;6282487;28;20035;-74
2022/10/17 04:40:14;;;;;;;0.93;0.70;;;19.80;59.50;;;;;;6267032;28;20513;-74
2022/10/17 04:43:15;;;;;;;1.05;0.70;;;19.80;59.50;;;;;;6267092;28;20048;-74
2022/10/17 04:46:16;;;;;;;0.93;0.77;;;19.80;59.60;;;;;;6266739;28;20104;-74
2022/10/17 04:49:17;;;;;;;0.77;0.70;;;19.80;59.50;;;;;;6266576;28;20120;-74
2022/10/17 04:52:17;;;;;;;0.80;0.70;;;19.80;59.60;;;;;;6267009;28;20100;-74
2022/10/17 04:55:18;;;;;;;0.85;0.75;;;19.80;59.50;;;;;;6265650;28;20022;-74
2022/10/17 04:58:20;;;;;;;0.90;0.77;;;19.80;59.50;;;;;;6268985;28;20083;-74
2022/10/17 05:01:22;;;;;;;1.27;0.90;;;19.80;59.50;;;;;;6266128;28;20052;-73
2022/10/17 05:04:24;;;;;;;1.50;0.88;;;19.80;59.50;;;;;;6247037;28;20021;-74
2022/10/17 05:07:25;;;;;;;1.00;0.80;;;19.80;59.50;;;;;;6271793;28;20498;-73
2022/10/17 05:10:26;;;;;;;1.48;0.90;;;19.80;59.50;;;;;;6270526;28;20054;-76
2022/10/17 05:13:28;;;;;;;1.58;0.90;;;19.80;59.60;;;;;;6271552;28;20029;-74
2022/10/17 05:16:29;;;;;;;0.60;0.60;;;19.80;59.60;;;;;;6271464;28;20021;-74
2022/10/17 05:19:30;;;;;;;1.05;0.80;;;19.80;59.60;;;;;;6269940;28;20494;-74
2022/10/17 05:22:31;;;;;;;1.10;0.80;;;19.80;59.60;;;;;;6270127;28;20048;-74
2022/10/17 05:25:31;;;;;;;0.95;0.85;;;19.80;59.60;;;;;;6271271;28;20858;-74
2022/10/17 05:28:33;;;;;;;1.08;0.80;;;19.80;59.60;;;;;;6270029;28;20021;-74
2022/10/17 05:31:34;;;;;;;0.85;0.70;;;19.80;59.50;;;;;;6270210;28;20029;-74
2022/10/17 05:34:34;;;;;;;1.17;0.75;;;19.80;59.60;;;;;;6269644;28;20394;-74
2022/10/17 05:37:35;;;;;;;0.98;0.77;;;19.80;59.50;;;;;;6270080;28;20035;-75
2022/10/17 05:40:37;;;;;;;1.08;0.80;;;19.80;59.50;;;;;;6270120;28;20614;-75
2022/10/17 05:43:38;;;;;;;1.17;0.80;;;19.80;59.50;;;;;;6271307;28;20021;-75
2022/10/17 05:46:39;;;;;;;1.52;0.90;;;19.80;59.60;;;;;;6270974;28;20061;-75
2022/10/17 05:49:39;;;;;;;1.00;0.70;;;19.80;59.60;;;;;;6270727;28;20127;-74
2022/10/17 05:52:40;;;;;;;1.13;0.88;;;19.80;59.50;;;;;;6270862;28;20112;-75
2022/10/17 05:55:41;;;;;;;1.30;0.70;;;19.80;59.50;;;;;;6269283;28;20056;-75
2022/10/17 05:58:43;;;;;;;1.33;0.80;;;19.80;59.50;;;;;;6271087;28;20029;-74
2022/10/17 06:01:44;;;;;;;1.15;0.75;;;19.80;59.50;;;;;;6272686;28;20032;-74
2022/10/17 06:04:47;;;;;;;1.63;0.90;;;19.80;59.50;;;;;;6271957;28;20029;-74
2022/10/17 06:07:49;;;;;;;1.10;0.70;;;19.80;59.50;;;;;;6265051;28;20465;-74
2022/10/17 06:10:49;;;;;;;0.85;0.70;;;19.80;59.50;;;;;;6270871;28;20171;-74
2022/10/17 06:13:50;;;;;;;1.35;1.10;;;19.80;59.50;;;;;;6271045;28;20370;-73
2022/10/17 06:16:51;;;;;;;1.67;0.70;;;19.80;59.50;;;;;;6264631;28;20469;-75
2022/10/17 06:19:51;;;;;;;1.20;0.90;;;19.80;59.50;;;;;;6271072;28;20060;-73
2022/10/17 06:22:52;;;;;;;1.85;1.00;;;19.80;59.50;;;;;;6265435;28;20023;-74
2022/10/17 06:25:53;;;;;;;1.88;1.17;;;19.80;59.60;;;;;;6279488;28;20029;-71
2022/10/17 06:28:54;;;;;;;1.17;0.90;;;19.80;59.60;;;;;;6270995;28;20478;-75
2022/10/17 06:31:55;;;;;;;1.90;1.00;;;19.80;59.60;;;;;;6267885;28;20622;-77
2022/10/17 06:34:56;;;;;;;1.60;1.00;;;19.80;59.60;;;;;;6245029;28;20021;-76
2022/10/17 06:37:56;;;;;;;1.95;0.80;;;19.80;59.60;;;;;;6244911;28;20037;-76
2022/10/17 06:41:07;;;;;;;2.20;1.00;;;19.80;59.60;;;;;;6268560;28;20424;-76
2022/10/17 06:44:10;;;;;;;1.40;0.80;;;19.80;59.60;;;;;;6266569;28;20059;-75
2022/10/17 06:47:11;;;;;;;1.13;0.88;;;19.80;59.60;;;;;;6261191;28;20033;-77
2022/10/17 06:50:11;;;;;;;1.75;1.00;;;19.80;59.60;;;;;;6246340;28;20042;-76
2022/10/17 06:53:13;;;;;;;10.27;1.00;;;19.80;59.60;;;;;;6249657;28;20137;-76
2022/10/17 06:56:14;;;;;;;13.88;1.83;;;19.80;59.80;;;;;;6245764;28;20052;-76
2022/10/17 06:59:15;;;;;;;10.55;1.90;;;19.90;59.50;;;;;;6246323;28;20079;-77
2022/10/17 07:02:16;;;;;;;10.02;1.35;;;19.90;59.60;;;;;;6264842;28;20033;-77
2022/10/17 07:05:18;;;;;;;3.17;1.35;;;19.90;59.60;;;;;;6248436;28;20040;-76
2022/10/17 07:08:18;;;;;;;5.53;1.23;;;19.90;59.60;;;;;;6260542;28;20536;-77
2022/10/17 07:11:21;;;;;;;5.45;1.50;;;19.80;59.50;;;;;;6249219;28;20052;-77
2022/10/17 07:14:22;;;;;;;4.80;1.42;;;19.80;59.50;;;;;;6245207;28;20018;-73
2022/10/17 07:17:23;;;;;;;2.25;0.98;;;19.80;59.60;;;;;;6247791;28;20056;-72
2022/10/17 07:20:24;;;;;;;3.13;1.58;;;19.80;59.60;;;;;;6260497;28;20025;-73
2022/10/17 07:23:25;;;;;;;2.65;1.10;;;19.80;59.60;;;;;;6263110;28;20025;-73
2022/10/17 07:26:26;;;;;;;3.45;1.35;;;19.80;59.70;;;;;;6292551;28;20028;-73
2022/10/17 07:29:26;;;;;;;4.20;1.15;;;19.80;59.50;;;;;;6277702;28;20033;-73
2022/10/17 07:32:27;;;;;;;2.85;1.17;;;19.90;60.20;;;;;;6269184;28;20466;-73
2022/10/17 07:35:28;;;;;;;3.63;1.30;;;19.90;59.40;;;;;;6248211;28;20018;-73
2022/10/17 07:38:29;;;;;;;2.50;1.10;;;19.90;59.30;;;;;;6252333;28;20538;-73
2022/10/17 07:41:29;;;;;;;2.80;1.20;;;19.90;59.30;;;;;;6277467;28;20033;-74
2022/10/17 07:44:30;;;;;;;3.38;1.20;;;19.90;59.30;;;;;;6246226;28;20052;-73
2022/10/17 07:47:34;;;;;;;2.25;1.20;;;20.00;59.30;;;;;;6243806;28;20032;-74
2022/10/17 07:50:35;;;;;;;1.77;0.95;;;20.00;59.30;;;;;;6266496;28;20599;-74
2022/10/17 07:53:37;;;;;;;5.03;0.98;;;20.00;59.30;;;;;;6263079;28;20022;-73
2022/10/17 07:56:38;;;;;;;2.47;1.02;;;20.00;59.40;;;;;;6242851;28;20559;-73
2022/10/17 07:59:39;;;;;;;2.95;1.10;;;19.90;59.40;;;;;;6256534;28;20075;-75
2022/10/17 08:02:40;;;;;;;1.70;1.00;;;19.90;59.50;;;;;;6243743;28;20152;-73
2022/10/17 08:05:41;;;;;;;1.55;0.90;;;19.90;59.50;;;;;;6265847;28;20050;-70
2022/10/17 08:08:43;;;;;;;2.33;1.10;;;19.90;59.60;;;;;;6268510;28;20394;-74
2022/10/17 08:11:43;;;;;;;2.75;1.40;;;19.90;59.60;;;;;;6259159;28;20813;-72
2022/10/17 08:14:44;;;;;;;2.35;1.30;;;19.90;59.60;;;;;;6243766;28;20021;-71
2022/10/17 08:17:45;;;;;;;2.78;0.82;;;19.90;59.60;;;;;;6250949;28;20037;-70
2022/10/17 08:20:47;;;;;;;3.65;0.93;;;19.90;59.60;;;;;;6267682;28;20032;-70
2022/10/17 08:23:48;;;;;;;1.30;1.00;;;19.90;59.60;;;;;;6266993;28;20548;-70
2022/10/17 08:26:48;;;;;;;1.98;1.25;;;19.90;59.60;;;;;;6268251;28;20116;-71
2022/10/17 08:29:53;;;;;;;1.50;0.80;;;19.90;59.60;;;;;;6267788;28;20070;-71
2022/10/17 08:32:55;;;;;;;1.10;0.90;;;19.90;59.60;;;;;;6267498;28;20025;-71
2022/10/17 08:35:58;;;;;;;3.83;0.80;;;19.90;59.60;;;;;;6246725;28;20420;-71
2022/10/17 08:38:59;;;;;;;1.20;0.75;;;19.90;59.60;;;;;;6241533;28;20025;-72
2022/10/17 08:42:05;;;;;;;1.17;0.80;;;19.90;59.70;;;;;;6242562;28;20063;-68
2022/10/17 08:45:15;;;;;;;2.28;1.00;;;19.90;59.70;;;;;;6253261;28;20130;-68
2022/10/17 08:48:20;;;;;;;1.40;1.00;;;19.90;59.70;;;;;;6244015;28;20040;-70
2022/10/17 08:51:26;;;;;;;1.77;0.90;;;19.90;59.70;;;;;;6267589;28;20091;-70
2022/10/17 08:54:40;;;;;;;1.35;0.90;;;19.90;59.70;;;;;;6259646;28;20081;-69
2022/10/17 08:57:41;;;;;;;1.35;0.90;;;19.90;59.70;;;;;;6243029;28;20052;-69
2022/10/17 09:00:50;;;;;;;2.13;1.00;;;19.90;59.70;;;;;;6244357;28;20036;-69
2022/10/17 09:04:09;;;;;;;1.83;0.90;;;19.90;59.70;;;;;;6265375;28;20071;-69
2022/10/17 09:07:27;;;;;;;2.60;1.05;;;19.80;59.70;;;;;;6278746;28;20033;-68
2022/10/17 09:10:28;;;;;;;1.45;0.90;;;19.80;59.70;;;;;;6253201;28;20029;-69
2022/10/17 09:13:47;;;;;;;1.00;0.90;;;19.80;59.70;;;;;;6262743;28;20670;-69
2022/10/17 09:17:05;;;;;;;1.30;0.95;;;19.80;59.60;;;;;;6241969;28;20021;-69
2022/10/17 09:20:19;;;;;;;1.30;0.88;;;19.80;59.60;;;;;;6244967;28;20029;-70
2022/10/17 09:23:25;;;;;;;1.85;0.73;;;19.90;59.70;;;;;;6261497;28;20036;-70
2022/10/17 09:26:27;;;;;;;2.25;0.88;;;19.80;59.60;;;;;;6246946;28;20033;-74
2022/10/17 09:29:28;;;;;;;1.42;1.00;;;19.80;59.70;;;;;;6243261;28;20112;-74
2022/10/17 09:32:29;;;;;;;1.45;1.00;;;19.80;59.70;;;;;;6265468;28;20638;-73
2022/10/17 09:35:31;;;;;;;1.83;0.93;;;19.80;59.70;;;;;;6267364;28;20025;-73
2022/10/17 09:38:41;;;;;;;1.77;0.95;;;19.80;59.70;;;;;;6267668;28;20060;-71
2022/10/17 09:41:57;;;;;;;4.50;0.98;;;19.80;59.70;;;;;;6267144;28;20039;-71
2022/10/17 09:45:17;;;;;;;1.55;0.85;;;19.90;59.70;;;;;;6271361;28;20438;-71
2022/10/17 09:48:35;;;;;;;2.53;1.08;;;19.90;59.80;;;;;;6271210;28;20104;-71
2022/10/17 09:51:37;;;;;;;1.38;0.93;;;19.90;59.70;;;;;;6272254;28;20056;-71
2022/10/17 09:54:43;;;;;;;2.10;1.10;;;19.90;59.70;;;;;;6271507;28;20025;-71
2022/10/17 09:58:01;;;;;;;2.38;0.90;;;19.90;59.80;;;;;;6266573;28;20028;-71
2022/10/17 10:01:22;;;;;;;1.90;1.10;;;19.90;59.80;;;;;;6266517;28;20040;-72
2022/10/17 10:04:24;;;;;;;1.83;0.80;;;19.80;59.70;;;;;;6270575;28;20060;-72
2022/10/17 10:07:31;;;;;;;1.20;0.98;;;19.90;59.80;;;;;;6271665;28;20021;-72
2022/10/17 10:10:32;;;;;;;2.00;1.05;;;19.80;59.70;;;;;;6270814;28;20021;-72
2022/10/17 10:13:34;;;;;;;1.20;1.00;;;19.80;59.70;;;;;;6272361;28;20017;-72
2022/10/17 10:16:42;;;;;;;4.55;0.93;;;19.90;59.80;;;;;;6272497;28;20025;-72
2022/10/17 10:19:49;;;;;;;1.10;0.90;;;19.90;59.70;;;;;;6272578;28;20021;-72
2022/10/17 10:23:20;;;;;;;4.00;1.00;;;19.90;59.70;;;;;;6271596;28;20033;-71
2022/10/17 10:26:28;;;;;;;1.30;0.93;;;19.90;59.80;;;;;;6271278;28;20513;-72
2022/10/17 10:29:31;;;;;;;1.13;0.80;;;19.90;59.80;;;;;;6271580;28;20104;-72
2022/10/17 10:32:34;;;;;;;1.55;0.80;;;19.90;59.80;;;;;;6271623;28;20059;-71
2022/10/17 10:35:36;;;;;;;1.13;0.82;;;19.80;59.70;;;;;;6271523;28;20095;-71
2022/10/17 10:38:41;;;;;;;2.45;1.08;;;19.90;59.80;;;;;;6261482;28;20386;-71
2022/10/17 10:41:47;;;;;;;1.45;0.80;;;19.90;59.90;;;;;;6253454;28;20063;-72
2022/10/17 10:44:49;;;;;;;1.60;0.90;;;19.80;59.80;;;;;;6270915;28;20029;-72
2022/10/17 10:47:52;;;;;;;1.42;0.85;;;19.80;59.70;;;;;;6255355;28;20029;-70
2022/10/17 10:51:14;;;;;;;1.10;0.70;;;19.80;59.80;;;;;;6245028;28;20048;-71
2022/10/17 10:54:27;;;;;;;0.80;0.60;;;19.80;59.70;;;;;;6246331;28;20032;-72
2022/10/17 10:57:32;;;;;;;1.30;1.00;;;19.80;59.80;;;;;;6244091;28;20517;-71
2022/10/17 11:00:36;;;;;;;1.00;0.73;;;19.80;59.80;;;;;;6254262;28;20029;-72
2022/10/17 11:03:51;;;;;;;1.50;1.00;;;19.80;59.70;;;;;;6271219;28;20025;-71
2022/10/17 11:06:58;;;;;;;1.80;1.00;;;19.80;59.80;;;;;;6270387;28;20108;-70
2022/10/17 11:10:18;;;;;;;0.82;0.77;;;19.80;59.80;;;;;;6268649;28;20032;-70
2022/10/17 11:14:00;;;;;;;1.80;0.80;;;19.80;59.80;;;;;;6253991;28;20017;-71
2022/10/17 11:17:24;;;;;;;1.33;1.10;;;19.80;59.80;;;;;;6246611;28;20026;-71
2022/10/17 11:20:48;;;;;;;1.45;0.95;;;19.80;59.80;;;;;;6244693;28;20032;-71
2022/10/17 11:24:11;;;;;;;2.03;0.85;;;19.80;59.80;;;;;;6244807;28;20497;-72
2022/10/17 11:27:12;;;;;;;0.85;0.82;;;19.80;59.80;;;;;;6244929;28;20506;-70
2022/10/17 11:30:14;;;;;;;1.67;0.80;;;19.80;59.80;;;;;;6244082;28;20021;-72
2022/10/17 11:33:23;;;;;;;0.90;0.80;;;19.80;59.80;;;;;;6257366;28;20017;-72
2022/10/17 11:36:36;;;;;;;1.58;0.95;;;19.80;59.80;;;;;;6269011;28;20052;-70
2022/10/17 11:40:03;;;;;;;1.08;0.90;;;19.80;59.80;;;;;;6270144;28;20103;-72
2022/10/17 11:43:16;;;;;;;1.77;0.98;;;19.80;59.80;;;;;;6259700;28;20115;-73
2022/10/17 11:46:23;;;;;;;0.82;0.70;;;19.80;59.80;;;;;;6268576;28;20033;-71
2022/10/17 11:49:52;;;;;;;1.70;1.00;;;19.80;59.80;;;;;;6268437;28;20051;-72
2022/10/17 11:53:05;;;;;;;1.08;0.90;;;19.80;59.80;;;;;;6268441;28;20033;-72
2022/10/17 11:56:08;;;;;;;1.63;0.82;;;19.80;59.80;;;;;;6270086;28;20024;-71
2022/10/17 11:59:24;;;;;;;1.20;0.70;;;19.80;59.80;;;;;;6269741;28;20078;-72
2022/10/17 12:02:37;;;;;;;1.20;0.60;;;19.80;59.80;;;;;;6268400;28;20390;-71
2022/10/17 12:05:53;;;;;;;1.30;0.82;;;19.80;59.90;;;;;;6269692;28;20036;-72
2022/10/17 12:09:15;;;;;;;1.50;0.82;;;19.80;59.80;;;;;;6260136;28;20113;-72
2022/10/17 12:12:23;;;;;;;0.90;0.68;;;19.80;59.80;;;;;;6268836;28;20025;-72
2022/10/17 12:15:25;;;;;;;4.53;0.98;;;19.80;59.80;;;;;;6244849;28;20025;-72
2022/10/17 12:18:29;;;;;;;0.50;0.50;;;19.80;59.90;;;;;;6244784;28;20026;-72
2022/10/17 12:22:17;;;;;;;1.10;0.77;;;19.80;59.90;;;;;;6245262;28;20033;-72
2022/10/17 12:25:19;;;;;;;1.38;0.90;;;19.80;59.90;;;;;;6267869;28;20112;-72
2022/10/17 12:28:27;;;;;;;0.70;0.55;;;19.80;59.90;;;;;;6269900;28;20021;-71
2022/10/17 12:31:28;;;;;;;1.10;0.90;;;19.80;59.90;;;;;;6268500;28;20017;-71
2022/10/17 12:34:28;;;;;;;0.95;0.80;;;19.80;59.90;;;;;;6263213;28;20148;-72
2022/10/17 12:38:01;;;;;;;0.82;0.68;;;19.80;59.90;;;;;;6269595;28;20029;-72
2022/10/17 12:41:03;;;;;;;1.98;0.80;;;19.80;59.90;;;;;;6244763;28;20116;-74
2022/10/17 12:44:13;;;;;;;1.00;0.88;;;19.80;59.90;;;;;;6249979;28;20029;-72
2022/10/17 12:47:36;;;;;;;0.88;0.80;;;19.80;59.90;;;;;;6261421;28;20030;-71
2022/10/17 12:50:59;;;;;;;0.80;0.60;;;19.80;59.90;;;;;;6265848;28;20458;-71
2022/10/17 12:54:13;;;;;;;1.05;0.73;;;19.80;59.90;;;;;;6269129;28;20036;-71
2022/10/17 12:57:19;;;;;;;3.08;0.73;;;19.80;59.90;;;;;;6269687;28;20505;-73
2022/10/17 13:00:47;;;;;;;0.70;0.60;;;19.80;59.80;;;;;;6266613;28;20088;-71
2022/10/17 13:03:51;;;;;;;1.05;0.80;;;19.80;59.90;;;;;;6265582;28;20603;-72
2022/10/17 13:06:55;;;;;;;2.05;0.77;;;19.80;59.90;;;;;;6243735;28;20029;-72
2022/10/17 13:10:03;;;;;;;0.90;0.73;;;19.80;59.90;;;;;;6271902;28;20139;-71
2022/10/17 13:13:18;;;;;;;1.08;0.60;;;19.80;59.90;;;;;;6268082;28;20032;-71
2022/10/17 13:16:30;;;;;;;2.13;1.10;;;19.80;59.90;;;;;;6266750;28;20572;-74
2022/10/17 13:19:52;;;;;;;0.75;0.70;;;19.80;59.90;;;;;;6256450;28;20260;-71
2022/10/17 13:22:56;;;;;;;0.75;0.60;;;19.80;59.90;;;;;;6274536;28;20055;-71
2022/10/17 13:26:15;;;;;;;0.95;0.60;;;19.80;59.90;;;;;;6273825;28;20028;-71
2022/10/17 13:29:15;;;;;;;0.73;0.70;;;19.80;59.90;;;;;;6273915;28;20025;-75
2022/10/17 13:32:16;;;;;;;1.77;0.70;;;19.80;59.90;;;;;;6274047;28;20108;-71
2022/10/17 13:35:27;;;;;;;0.70;0.50;;;19.80;59.90;;;;;;6274004;28;20025;-71
2022/10/17 13:38:31;;;;;;;0.70;0.70;;;19.80;59.90;;;;;;6274428;28;20105;-74
2022/10/17 13:41:37;;;;;;;0.77;0.63;;;19.80;59.90;;;;;;6273832;28;20434;-74
2022/10/17 13:44:37;;;;;;;0.70;0.60;;;19.80;59.90;;;;;;6273471;28;20025;-71
2022/10/17 13:47:38;;;;;;;0.80;0.70;;;19.80;60.70;;;;;;6272121;28;20537;-72
2022/10/17 13:50:40;;;;;;;1.90;0.95;;;19.80;59.90;;;;;;6271585;28;20119;-71
2022/10/17 13:53:43;;;;;;;0.85;0.70;;;19.80;59.90;;;;;;6273250;28;20832;-74
2022/10/17 13:56:44;;;;;;;0.70;0.60;;;19.80;59.90;;;;;;6272625;28;20017;-73
2022/10/17 13:59:48;;;;;;;0.95;0.85;;;19.80;59.90;;;;;;6272760;28;20024;-74
2022/10/17 14:02:49;;;;;;;0.90;0.70;;;19.80;59.90;;;;;;6273181;28;20025;-73
2022/10/17 14:06:03;;;;;;;1.02;0.70;;;19.80;59.90;;;;;;6272014;28;20125;-71
2022/10/17 14:09:16;;;;;;;1.08;0.70;;;19.80;59.90;;;;;;6271787;28;20055;-71
2022/10/17 14:12:19;;;;;;;0.70;0.60;;;19.80;59.90;;;;;;6272627;28;20124;-72
2022/10/17 14:15:30;;;;;;;0.65;0.60;;;19.80;59.90;;;;;;6272751;28;20436;-71
2022/10/17 14:18:35;;;;;;;0.60;0.60;;;19.80;59.90;;;;;;6271974;28;20059;-71
2022/10/17 14:21:35;;;;;;;0.70;0.63;;;19.80;59.90;;;;;;6272981;28;20095;-72
2022/10/17 14:24:37;;;;;;;0.70;0.70;;;19.80;59.90;;;;;;6272763;28;20033;-72
2022/10/17 14:28:02;;;;;;;1.20;0.73;;;19.80;59.90;;;;;;6272647;28;20025;-72
2022/10/17 14:31:14;;;;;;;1.50;0.77;;;19.80;59.90;;;;;;6271877;28;20021;-72
2022/10/17 14:34:22;;;;;;;1.00;0.70;;;19.80;59.90;;;;;;6271068;28;20605;-72
2022/10/17 14:37:36;;;;;;;0.80;0.65;;;19.80;60.00;;;;;;6272586;28;20044;-72
2022/10/17 14:40:36;;;;;;;0.82;0.70;;;19.80;60.00;;;;;;6272345;28;20025;-72
2022/10/17 14:43:37;;;;;;;0.65;0.60;;;19.80;59.90;;;;;;6271065;28;20039;-71
2022/10/17 14:46:44;;;;;;;0.95;0.70;;;19.80;59.90;;;;;;6262768;28;20022;-72
2022/10/17 14:49:49;;;;;;;0.55;0.55;;;19.80;59.90;;;;;;6245809;28;20499;-71
2022/10/17 14:53:02;;;;;;;;;;;19.80;59.90;;;;;;6247823;28;20152;-72
2022/10/17 14:56:19;;;;;;;0.82;0.57;;;19.80;59.90;;;;;;6246007;28;19913;-72
2022/10/17 14:59:24;;;;;;;0.70;0.47;;;19.80;59.90;;;;;;6247845;28;20040;-71
2022/10/17 15:02:27;;;;;;;0.70;0.50;;;19.80;59.90;;;;;;6271961;28;20028;-72
2022/10/17 15:05:28;;;;;;;0.80;0.70;;;19.80;59.90;;;;;;6271549;28;20033;-72
2022/10/17 15:08:29;;;;;;;0.85;0.60;;;19.80;59.90;;;;;;6270134;28;20032;-72
2022/10/17 15:11:30;;;;;;;0.52;0.52;;;19.80;59.90;;;;;;6271364;28;20501;-72
2022/10/17 15:14:30;;;;;;;0.80;0.70;;;19.80;59.90;;;;;;6271518;28;20022;-72
2022/10/17 15:17:33;;;;;;;0.80;0.70;;;19.80;59.90;;;;;;6271518;28;20493;-71
2022/10/17 15:20:34;;;;;;;0.93;0.68;;;19.80;59.90;;;;;;6271493;28;20021;-72
2022/10/17 15:23:34;;;;;;;0.75;0.57;;;19.80;59.90;;;;;;6270563;28;20444;-72
2022/10/17 15:26:35;;;;;;;0.60;0.50;;;19.80;59.90;;;;;;6271204;28;20032;-72
2022/10/17 15:29:36;;;;;;;0.50;0.50;;;19.80;59.90;;;;;;6267412;28;20116;-72
2022/10/17 15:32:37;;;;;;;0.70;0.57;;;19.80;59.90;;;;;;6271177;28;20381;-72
2022/10/17 15:35:38;;;;;;;1.40;0.70;;;19.80;59.90;;;;;;6271103;28;20021;-72
2022/10/17 15:38:38;;;;;;;0.88;0.63;;;19.80;59.90;;;;;;6271098;28;20032;-71
2022/10/17 15:41:39;;;;;;;0.95;0.57;;;19.80;59.90;;;;;;6270341;28;20036;-72
2022/10/17 15:44:42;;;;;;;0.80;0.57;;;19.80;59.90;;;;;;6269811;28;20039;-72
2022/10/17 15:47:53;;;;;;;0.45;0.45;;;19.80;59.90;;;;;;6270828;28;20496;-72
2022/10/17 15:50:54;;;;;;;0.60;0.55;;;19.80;59.90;;;;;;6269467;28;20409;-71
2022/10/17 15:53:55;;;;;;;0.52;0.40;;;19.80;59.90;;;;;;6270677;28;20021;-72
2022/10/17 15:56:56;;;;;;;0.77;0.63;;;19.80;59.90;;;;;;6270675;28;20029;-72
2022/10/17 15:59:59;;;;;;;0.50;0.50;;;19.80;59.90;;;;;;6269807;28;20118;-71
2022/10/17 16:03:00;;;;;;;0.77;0.60;;;19.80;59.90;;;;;;6271036;28;20068;-71
2022/10/17 16:06:01;;;;;;;0.63;0.50;;;19.80;59.90;;;;;;6271096;28;20024;-71
2022/10/17 16:09:02;;;;;;;1.33;0.60;;;19.80;59.90;;;;;;6269019;28;20497;-72